Time;durP1;ratioP1;P1;durP2;ratioP2;P2;SDS_P1;SDS_P2;PMS_P1;PMS_P2;Temp;Humidity;BMP_temperature;BMP_pressure;BME280_temperature;BME280_humidity;BME280_pressure;Samples;Min_cycle;Max_cycle;Signal;HPM_P1;HPM_P2
2021/12/22 00:01:45;;;;;;;12.30;5.18;;;-11.30;54.40;;;-11.93;92.95;99472.00;5008698;28;120056;-76
2021/12/22 00:04:14;;;;;;;11.98;4.75;;;-11.30;54.60;;;-11.98;93.05;99476.91;5014653;28;119536;-76
2021/12/22 00:06:42;;;;;;;9.27;4.63;;;-11.40;55.20;;;-12.11;93.26;99492.28;5015001;28;129783;-75
2021/12/22 00:09:11;;;;;;;10.88;4.68;;;-11.40;55.00;;;-12.18;93.71;99483.50;4984575;28;128675;-76
2021/12/22 00:11:41;;;;;;;13.25;4.88;;;-11.40;54.90;;;-12.18;93.91;99486.09;5006959;28;118530;-76
2021/12/22 00:14:09;;;;;;;8.13;4.15;;;-11.40;55.20;;;-12.20;93.81;99488.03;5008322;28;118855;-76
2021/12/22 00:16:40;;;;;;;11.98;4.82;;;-11.40;54.60;;;-12.22;93.89;99490.03;4982978;28;130158;-77
2021/12/22 00:19:08;;;;;;;10.55;4.45;;;-11.40;54.50;;;-12.16;94.12;99484.13;5021835;28;130253;-77
2021/12/22 00:21:37;;;;;;;11.70;4.82;;;-11.40;54.90;;;-12.16;93.94;99494.59;4991763;28;119402;-77
2021/12/22 00:24:11;;;;;;;8.93;4.80;;;-11.50;55.20;;;-12.24;93.91;99497.22;5022153;28;119207;-76
2021/12/22 00:26:42;;;;;;;8.65;4.22;;;-11.50;55.40;;;-12.32;94.46;99496.22;5014577;28;129748;-77
2021/12/22 00:29:12;;;;;;;7.70;3.63;;;-11.50;56.00;;;-12.20;94.57;99506.34;4997725;28;130155;-75
2021/12/22 00:31:58;;;;;;;11.98;4.45;;;-11.40;56.20;;;-12.03;94.02;99507.97;5037128;27;118604;-76
2021/12/22 00:34:27;;;;;;;11.30;4.57;;;-11.40;56.60;;;-11.93;93.28;99516.50;5013635;28;119880;-75
2021/12/22 00:36:56;;;;;;;8.00;4.30;;;-11.30;57.20;;;-11.87;93.19;99516.78;5008970;28;129820;-75
2021/12/22 00:39:25;;;;;;;8.30;4.30;;;-11.30;57.30;;;-11.80;93.14;99509.91;5038505;27;129290;-75
2021/12/22 00:41:56;;;;;;;9.05;4.57;;;-11.30;57.80;;;-11.69;92.70;99514.78;5008984;28;121907;-75
2021/12/22 00:44:25;;;;;;;9.70;4.38;;;-11.20;58.10;;;-11.71;92.42;99511.53;5022564;27;121761;-76
2021/12/22 00:46:54;;;;;;;9.18;4.68;;;-11.20;57.50;;;-11.70;92.83;99515.78;4995099;28;129443;-75
2021/12/22 00:49:26;;;;;;;11.80;4.32;;;-11.20;57.80;;;-11.63;92.76;99514.13;4989868;28;129575;-79
2021/12/22 00:51:54;;;;;;;8.88;4.63;;;-11.20;58.00;;;-11.59;92.40;99523.28;4998801;28;119480;-79
2021/12/22 00:54:24;;;;;;;9.25;4.72;;;-11.10;58.00;;;-11.59;92.38;99522.47;4994858;28;119671;-79
2021/12/22 00:56:54;;;;;;;10.93;4.90;;;-11.20;58.00;;;-11.66;92.67;99522.31;5007423;28;128939;-79
2021/12/22 00:59:25;;;;;;;10.10;4.80;;;-11.20;58.40;;;-11.54;92.95;99525.41;4996354;28;129995;-79
2021/12/22 01:01:54;;;;;;;10.63;4.85;;;-11.10;59.10;;;-11.50;92.86;99525.88;5028284;27;118665;-79
2021/12/22 01:04:22;;;;;;;10.10;4.38;;;-11.00;59.40;;;-11.43;92.46;99521.59;4997132;28;119708;-76
2021/12/22 01:06:51;;;;;;;11.38;4.97;;;-11.00;58.50;;;-11.42;92.88;99518.81;5013656;28;130657;-75
2021/12/22 01:09:20;;;;;;;10.55;4.57;;;-10.90;58.20;;;-11.46;92.88;99519.31;5021331;28;129576;-77
2021/12/22 01:11:49;;;;;;;11.40;4.53;;;-10.90;57.90;;;-11.35;93.23;99518.94;5003729;28;119196;-77
2021/12/22 01:14:18;;;;;;;9.70;4.13;;;-10.90;58.70;;;-11.40;92.21;99521.28;4986250;28;118663;-77
2021/12/22 01:16:49;;;;;;;9.70;4.82;;;-10.80;57.60;;;-11.33;92.50;99522.22;5010217;28;129555;-77
2021/12/22 01:19:27;;;;;;;8.48;4.45;;;-10.80;57.60;;;-11.42;92.51;99515.38;5016806;28;129554;-76
2021/12/22 01:22:02;;;;;;;9.88;4.30;;;-10.70;57.80;;;-11.36;92.46;99521.75;5001403;28;119273;-76
2021/12/22 01:24:33;;;;;;;10.05;4.43;;;-10.80;56.10;;;-11.68;92.36;99539.19;5014513;28;120156;-76
2021/12/22 01:27:08;;;;;;;10.63;4.97;;;-10.90;52.30;;;-11.97;93.77;99536.13;4992420;28;129179;-76
2021/12/22 01:29:40;;;;;;;7.93;4.28;;;-10.90;50.90;;;-11.84;93.46;99538.22;5017015;28;129403;-75
2021/12/22 01:32:13;;;;;;;11.63;4.82;;;-10.90;52.50;;;-11.99;94.37;99538.09;5016662;28;121838;-75
2021/12/22 01:34:42;;;;;;;8.90;4.68;;;-10.90;52.10;;;-12.19;94.66;99542.03;4992677;28;120134;-74
2021/12/22 01:37:10;;;;;;;9.57;5.13;;;-11.10;51.70;;;-12.43;93.67;99546.25;4987228;28;129677;-75
2021/12/22 01:39:39;;;;;;;9.57;4.63;;;-11.30;47.60;;;-12.53;94.29;99556.84;5025909;27;131082;-75
2021/12/22 01:42:14;;;;;;;6.82;3.90;;;-11.50;47.80;;;-12.69;94.25;99551.59;5030154;27;120103;-74
2021/12/22 01:45:02;;;;;;;10.05;5.25;;;-11.60;47.00;;;-12.63;94.16;99544.88;5010795;28;119339;-75
2021/12/22 01:50:37;;;;;;;8.98;4.40;;;-11.60;49.20;;;-12.64;94.70;99543.28;5007250;28;130290;-74
2021/12/22 01:53:28;;;;;;;8.63;4.22;;;-11.50;51.00;;;-12.65;95.25;99552.91;5020736;28;119671;-75
2021/12/22 01:56:07;;;;;;;9.10;4.22;;;-11.60;51.90;;;-12.47;95.12;99539.69;5017026;28;119847;-75
2021/12/22 01:58:39;;;;;;;8.70;3.92;;;-11.60;52.90;;;-12.31;94.65;99538.88;5023879;27;129497;-78
2021/12/22 02:01:08;;;;;;;9.73;4.45;;;-11.50;53.80;;;-12.16;93.89;99539.88;5024346;28;129572;-79
2021/12/22 02:03:39;;;;;;;13.82;4.78;;;-11.50;54.80;;;-12.38;93.86;99543.97;4993144;28;118536;-75
2021/12/22 02:06:09;;;;;;;12.63;4.72;;;-11.50;52.80;;;-12.44;94.65;99557.69;5026132;28;119290;-74
2021/12/22 02:08:38;;;;;;;11.18;4.15;;;-11.50;53.20;;;-12.39;94.36;99538.88;5021718;28;129542;-74
2021/12/22 02:11:07;;;;;;;7.93;4.15;;;-11.50;52.50;;;-12.33;94.39;99541.66;5016345;28;129596;-75
2021/12/22 02:13:40;;;;;;;9.80;4.70;;;-11.50;53.30;;;-12.23;94.01;99549.38;5002519;28;119399;-75
2021/12/22 02:16:14;;;;;;;11.73;4.60;;;-11.50;53.30;;;-12.45;93.44;99535.13;5024318;28;119667;-75
2021/12/22 02:18:49;;;;;;;9.45;4.43;;;-11.60;52.10;;;-12.44;93.89;99539.38;5023870;28;129637;-75
2021/12/22 02:21:21;;;;;;;10.82;4.25;;;-11.60;51.50;;;-12.64;93.69;99535.41;5018134;28;130328;-75
2021/12/22 02:23:50;;;;;;;8.00;4.32;;;-11.70;50.70;;;-12.89;93.67;99530.13;5007111;28;122151;-75
2021/12/22 02:26:22;;;;;;;7.20;4.07;;;-11.90;49.60;;;-12.92;93.30;99533.06;5004313;28;121391;-75
2021/12/22 02:28:58;;;;;;;6.53;3.50;;;-12.00;49.20;;;-13.10;93.42;99538.38;5002762;28;129427;-75
2021/12/22 02:31:27;;;;;;;10.13;4.13;;;-12.10;48.60;;;-13.14;93.44;99532.66;5005857;28;129745;-75
2021/12/22 02:33:57;;;;;;;6.10;3.92;;;-12.20;47.70;;;-13.32;93.75;99545.81;5019446;28;119306;-75
2021/12/22 02:36:34;;;;;;;10.60;4.18;;;-12.30;47.40;;;-13.43;94.08;99543.47;5040365;27;118374;-75
2021/12/22 02:39:05;;;;;;;8.68;3.70;;;-12.30;47.80;;;-13.54;94.59;99541.94;5006808;28;130297;-74
2021/12/22 02:41:37;;;;;;;7.97;4.32;;;-12.40;47.90;;;-13.60;94.76;99537.34;4994136;28;129286;-74
2021/12/22 02:44:10;;;;;;;7.80;4.07;;;-12.40;48.00;;;-13.59;95.04;99549.44;5017661;28;119600;-75
2021/12/22 02:46:46;;;;;;;9.80;5.00;;;-12.40;47.40;;;-13.62;94.87;99549.75;5023929;28;119303;-75
2021/12/22 02:49:15;;;;;;;8.93;4.43;;;-12.40;47.10;;;-13.60;94.64;99547.78;5021954;28;129923;-74
2021/12/22 02:51:44;;;;;;;6.93;3.67;;;-12.50;48.10;;;-13.54;94.62;99541.94;4998233;28;128720;-74
2021/12/22 02:54:18;;;;;;;10.20;4.60;;;-12.60;48.60;;;-13.53;94.41;99548.81;4995618;28;119228;-74
2021/12/22 02:56:57;;;;;;;7.60;4.20;;;-12.70;48.20;;;-13.48;94.36;99546.56;4998895;28;117839;-76
2021/12/22 02:59:48;;;;;;;8.00;3.83;;;-12.70;49.60;;;-13.62;94.83;99547.13;5006591;28;130049;-76
2021/12/22 03:02:30;;;;;;;8.85;4.18;;;-12.70;51.70;;;-13.64;94.94;99549.09;5005144;28;128927;-76
2021/12/22 03:04:59;;;;;;;11.32;4.43;;;-12.60;52.40;;;-13.63;95.27;99550.72;4990964;28;119086;-76
2021/12/22 03:07:33;;;;;;;9.65;4.65;;;-12.50;51.90;;;-13.65;95.30;99550.06;5021421;28;119339;-76
2021/12/22 03:10:11;;;;;;;6.85;4.07;;;-12.50;52.30;;;-13.49;95.30;99555.38;5030325;27;129738;-74
2021/12/22 03:12:42;;;;;;;6.18;3.70;;;-12.50;51.90;;;-13.51;95.04;99548.66;5023405;28;129652;-75
2021/12/22 03:15:12;;;;;;;12.40;4.07;;;-12.50;52.80;;;-13.52;95.15;99550.47;5007822;28;121367;-75
2021/12/22 03:17:41;;;;;;;9.48;3.80;;;-12.50;52.40;;;-13.53;95.72;99553.22;4992349;28;121098;-75
2021/12/22 03:20:12;;;;;;;9.25;4.20;;;-12.50;53.00;;;-13.46;95.07;99554.22;5009404;28;129790;-75
2021/12/22 03:22:46;;;;;;;9.38;4.00;;;-12.50;53.40;;;-13.38;95.07;99549.88;5015862;28;129838;-75
2021/12/22 03:25:17;;;;;;;11.80;4.75;;;-12.60;53.40;;;-13.30;94.45;99553.50;5019190;28;119873;-75
2021/12/22 03:27:49;;;;;;;9.93;4.40;;;-12.60;53.60;;;-13.33;93.92;99548.63;5012885;28;119399;-75
2021/12/22 03:30:21;;;;;;;12.25;4.53;;;-12.60;53.80;;;-13.27;93.93;99554.00;5013450;28;129885;-75
2021/12/22 03:32:49;;;;;;;8.10;4.15;;;-12.70;54.60;;;-13.36;94.31;99546.31;5012576;28;130141;-75
2021/12/22 03:35:20;;;;;;;6.68;4.05;;;-12.70;54.70;;;-13.45;94.01;99546.25;5012511;28;119702;-75
2021/12/22 03:37:56;;;;;;;12.55;4.15;;;-12.70;55.10;;;-13.49;94.79;99555.38;5010201;28;119714;-75
2021/12/22 03:40:26;;;;;;;8.67;4.93;;;-12.60;55.40;;;-13.47;94.96;99553.44;5020829;28;129924;-75
2021/12/22 03:42:55;;;;;;;9.52;4.10;;;-12.70;55.20;;;-13.56;94.72;99560.38;5001057;28;129767;-75
2021/12/22 03:45:24;;;;;;;9.35;4.55;;;-12.70;55.40;;;-13.57;94.89;99558.75;5021847;28;119671;-75
2021/12/22 03:47:52;;;;;;;7.57;3.80;;;-12.70;55.20;;;-13.56;94.97;99564.78;5010421;28;119495;-75
2021/12/22 03:50:21;;;;;;;8.07;4.53;;;-12.70;55.40;;;-13.57;94.84;99563.16;4993046;28;130792;-75
2021/12/22 03:52:51;;;;;;;13.00;4.78;;;-12.80;56.00;;;-13.56;95.20;99565.59;4984372;28;129607;-76
2021/12/22 03:55:20;;;;;;;11.25;4.57;;;-12.80;55.70;;;-13.67;94.89;99567.66;5008107;28;119708;-76
2021/12/22 03:57:50;;;;;;;10.73;4.25;;;-12.70;55.30;;;-13.59;95.13;99570.31;5023038;28;119281;-76
2021/12/22 04:00:18;;;;;;;11.10;4.68;;;-12.70;55.90;;;-13.62;95.30;99565.41;4989357;28;128931;-77
2021/12/22 04:02:47;;;;;;;12.48;4.88;;;-12.70;55.40;;;-13.61;95.17;99573.09;5030254;27;129567;-77
2021/12/22 04:05:17;;;;;;;8.43;4.88;;;-12.70;54.90;;;-13.61;95.34;99567.06;5011943;28;121979;-77
2021/12/22 04:07:45;;;;;;;10.68;5.18;;;-12.70;55.20;;;-13.65;95.25;99573.53;4994446;28;122085;-77
2021/12/22 04:10:22;;;;;;;10.45;3.97;;;-12.70;55.10;;;-13.59;94.77;99567.72;5004296;28;129803;-77
2021/12/22 04:12:54;;;;;;;11.10;4.53;;;-12.70;54.30;;;-13.58;94.71;99567.56;5008780;28;129427;-76
2021/12/22 04:15:27;;;;;;;9.27;4.28;;;-12.80;54.90;;;-13.56;94.83;99570.00;4976009;28;119018;-75
2021/12/22 04:17:56;;;;;;;13.18;5.00;;;-12.70;55.50;;;-13.59;94.66;99570.31;5016828;28;119545;-75
2021/12/22 04:20:27;;;;;;;11.27;4.88;;;-12.70;54.80;;;-13.54;94.66;99562.84;5005763;28;129012;-78
2021/12/22 04:22:56;;;;;;;8.68;4.60;;;-12.80;54.60;;;-13.58;94.74;99571.97;5003993;28;129361;-80
2021/12/22 04:25:28;;;;;;;12.00;4.75;;;-12.80;54.60;;;-13.57;94.46;99563.16;5014967;28;119567;-78
2021/12/22 04:28:07;;;;;;;8.77;4.63;;;-12.70;54.90;;;-13.58;94.90;99571.97;5023560;28;119856;-79
2021/12/22 04:30:39;;;;;;;11.27;4.57;;;-12.70;54.00;;;-13.61;95.00;99572.28;5004062;28;129480;-76
2021/12/22 04:33:08;;;;;;;9.52;4.85;;;-12.70;54.00;;;-13.60;94.86;99569.50;5015007;28;129951;-76
2021/12/22 04:35:36;;;;;;;8.68;4.90;;;-12.70;53.90;;;-13.61;94.65;99567.06;5009588;28;118641;-77
2021/12/22 04:38:05;;;;;;;8.95;4.53;;;-12.70;53.40;;;-13.66;94.59;99582.34;5016286;28;119842;-79
2021/12/22 04:40:41;;;;;;;8.77;4.53;;;-12.70;53.30;;;-13.64;94.86;99577.81;5004397;28;129068;-78
2021/12/22 04:43:10;;;;;;;12.80;6.00;;;-12.70;52.60;;;-13.69;94.84;99583.47;5018392;28;130451;-78
2021/12/22 04:45:38;;;;;;;10.75;4.93;;;-12.70;52.10;;;-13.75;95.13;99579.69;5018358;28;119554;-76
2021/12/22 04:48:07;;;;;;;17.17;6.50;;;-12.50;52.00;;;-13.74;94.85;99577.91;4993255;27;119459;-76
2021/12/22 04:50:35;;;;;;;9.52;4.78;;;-12.80;51.60;;;-13.68;94.35;99581.69;5010999;28;129654;-76
2021/12/22 04:53:10;;;;;;;19.13;6.20;;;-12.70;51.60;;;-13.67;94.76;99583.31;4989956;28;129276;-76
2021/12/22 04:55:41;;;;;;;13.75;4.63;;;-12.70;51.40;;;-13.66;94.01;99579.72;5037408;27;122430;-77
2021/12/22 04:58:10;;;;;;;11.15;5.20;;;-12.80;51.20;;;-13.66;94.15;99574.50;5016151;28;122004;-76
2021/12/22 05:00:40;;;;;;;9.70;4.90;;;-12.80;51.10;;;-13.79;94.66;99580.13;5042566;27;129785;-78
2021/12/22 05:03:09;;;;;;;8.32;4.65;;;-12.80;51.00;;;-13.66;94.10;99575.34;5023585;28;129681;-78
2021/12/22 05:05:37;;;;;;;12.23;5.80;;;-12.80;50.80;;;-13.74;94.27;99577.91;5023755;28;120171;-78
2021/12/22 05:08:06;;;;;;;12.77;4.78;;;-12.80;50.80;;;-13.71;94.26;99582.81;5008044;28;119068;-77
2021/12/22 05:10:35;;;;;;;9.93;4.95;;;-12.80;51.40;;;-13.74;93.91;99583.13;5020363;28;130271;-77
2021/12/22 05:13:05;;;;;;;13.27;5.00;;;-12.80;52.20;;;-13.62;93.86;99581.06;4991250;28;129334;-77
2021/12/22 05:15:38;;;;;;;8.93;4.60;;;-12.60;51.20;;;-13.66;94.10;99584.94;5022906;28;119549;-77
2021/12/22 05:18:25;;;;;;;13.27;5.00;;;-12.80;51.00;;;-13.66;94.53;99579.72;5005914;28;118530;-77
2021/12/22 05:20:54;;;;;;;15.45;5.75;;;-12.80;51.20;;;-13.66;94.71;99580.56;5004356;28;129239;-77
2021/12/22 05:23:23;;;;;;;10.15;5.25;;;-12.80;51.40;;;-13.65;94.22;99581.38;5021191;28;129630;-77
2021/12/22 05:25:51;;;;;;;12.73;5.78;;;-12.80;52.10;;;-13.65;94.38;99586.59;5006703;28;118398;-77
2021/12/22 05:28:21;;;;;;;14.55;5.40;;;-12.80;52.00;;;-13.61;94.10;99591.34;5024423;28;119118;-77
2021/12/22 05:30:50;;;;;;;13.63;5.18;;;-12.80;52.10;;;-13.75;94.50;99597.94;5021439;28;130387;-76
2021/12/22 05:33:19;;;;;;;11.07;5.05;;;-12.80;51.70;;;-13.69;94.11;99598.34;5003561;28;128632;-75
2021/12/22 05:35:47;;;;;;;13.32;6.07;;;-12.80;51.50;;;-13.72;94.38;99616.91;5021313;28;119997;-76
2021/12/22 05:38:17;;;;;;;13.18;6.20;;;-12.80;51.40;;;-13.69;94.16;99617.41;5006050;28;119882;-76
2021/12/22 05:40:46;;;;;;;15.73;7.47;;;-12.80;51.40;;;-13.73;94.43;99620.47;5007612;28;129314;-76
2021/12/22 05:43:14;;;;;;;15.57;7.60;;;-12.90;50.90;;;-13.71;94.01;99621.13;5007486;28;129698;-75
2021/12/22 05:45:44;;;;;;;19.10;9.23;;;-12.90;51.00;;;-13.73;94.14;99623.09;5040542;27;121692;-76
2021/12/22 05:48:13;;;;;;;14.02;7.50;;;-13.00;51.30;;;-13.77;94.65;99620.78;5021069;28;121896;-76
2021/12/22 05:50:44;;;;;;;21.15;9.35;;;-12.90;51.70;;;-13.69;93.92;99627.03;5020998;28;130485;-76
2021/12/22 05:53:12;;;;;;;18.73;9.65;;;-13.00;52.30;;;-13.77;94.41;99628.59;5020557;28;129686;-76
2021/12/22 05:55:41;;;;;;;17.83;8.40;;;-13.00;52.50;;;-13.69;94.43;99642.69;5021368;27;119745;-77
2021/12/22 05:58:10;;;;;;;16.52;7.60;;;-13.10;52.40;;;-13.70;94.03;99641.06;5023493;28;120038;-77
2021/12/22 06:00:41;;;;;;;26.25;10.73;;;-13.10;52.70;;;-13.71;93.97;99639.41;5009292;28;129232;-76
2021/12/22 06:03:12;;;;;;;20.13;8.20;;;-13.10;52.50;;;-13.77;94.00;99636.44;5024474;28;129736;-75
2021/12/22 06:05:41;;;;;;;25.92;10.50;;;-13.20;52.90;;;-13.71;93.88;99649.84;5009914;28;118611;-76
2021/12/22 06:08:10;;;;;;;32.20;10.65;;;-13.20;53.00;;;-13.83;93.79;99651.88;4993171;28;119018;-76
2021/12/22 06:10:39;;;;;;;37.33;14.00;;;-13.00;53.50;;;-13.73;94.32;99654.41;5022875;28;129791;-76
2021/12/22 06:13:11;;;;;;;29.67;11.48;;;-13.20;53.70;;;-13.65;94.24;99657.06;5009099;28;129944;-76
2021/12/22 06:15:41;;;;;;;33.90;10.88;;;-13.10;54.80;;;-13.61;93.75;99655.81;5009630;28;118986;-76
2021/12/22 06:18:11;;;;;;;32.45;13.05;;;-13.10;54.50;;;-13.60;93.70;99652.19;5009729;28;118663;-76
2021/12/22 06:20:40;;;;;;;36.88;13.90;;;-13.10;54.80;;;-13.55;93.59;99655.19;5008510;28;129722;-76
2021/12/22 06:23:08;;;;;;;29.10;11.90;;;-12.80;55.10;;;-13.57;93.65;99654.50;5024100;28;129642;-76
2021/12/22 06:25:38;;;;;;;23.92;9.40;;;-13.00;55.60;;;-13.63;94.00;99660.34;5009376;28;119312;-76
2021/12/22 06:28:07;;;;;;;16.80;6.50;;;-13.00;55.10;;;-13.54;94.04;99666.47;5006583;28;119465;-76
2021/12/22 06:30:36;;;;;;;28.02;9.95;;;-12.90;55.30;;;-13.54;94.00;99677.72;5023653;28;130076;-76
2021/12/22 06:33:05;;;;;;;54.05;17.80;;;-12.90;55.00;;;-13.52;94.00;99681.00;5023569;28;130455;-76
2021/12/22 06:35:35;;;;;;;36.95;13.88;;;-12.80;55.00;;;-13.41;94.00;99685.19;5022950;28;121631;-76
2021/12/22 06:38:04;;;;;;;34.92;13.65;;;-12.80;55.70;;;-13.31;93.52;99682.44;5008939;28;120866;-76
2021/12/22 06:40:32;;;;;;;34.22;13.88;;;-12.70;55.70;;;-13.23;93.47;99685.94;5023590;28;129892;-76
2021/12/22 06:43:01;;;;;;;24.67;8.88;;;-12.70;55.80;;;-13.14;93.09;99686.78;5023692;28;130572;-76
2021/12/22 06:45:29;;;;;;;20.33;8.85;;;-12.50;55.70;;;-13.07;93.65;99679.16;5042651;27;121524;-77
2021/12/22 06:47:58;;;;;;;18.45;7.60;;;-12.50;56.20;;;-12.98;92.91;99682.63;5023924;28;119703;-76
2021/12/22 06:50:27;;;;;;;15.93;6.57;;;-12.50;55.80;;;-12.94;93.25;99678.75;5008777;28;129344;-76
2021/12/22 06:52:58;;;;;;;12.95;6.32;;;-12.50;55.90;;;-12.94;92.29;99683.97;5024091;28;130306;-76
2021/12/22 06:55:27;;;;;;;13.27;5.95;;;-12.40;54.80;;;-12.83;92.48;99686.31;5009094;28;118517;-77
2021/12/22 06:57:56;;;;;;;13.40;7.13;;;-12.30;54.50;;;-12.96;92.36;99688.50;5005994;28;119223;-76
2021/12/22 07:00:24;;;;;;;16.27;7.28;;;-12.30;53.40;;;-12.83;92.44;99681.09;5022699;28;129845;-76
2021/12/22 07:02:54;;;;;;;24.77;9.02;;;-12.20;53.00;;;-12.72;92.16;99691.25;5023540;28;129750;-76
2021/12/22 07:05:23;;;;;;;28.67;10.88;;;-12.20;53.10;;;-12.48;91.70;99687.13;5023676;28;119273;-76
2021/12/22 07:07:52;;;;;;;33.80;12.05;;;-12.10;53.60;;;-12.48;91.39;99692.34;5025796;28;119355;-76
2021/12/22 07:10:22;;;;;;;28.70;12.25;;;-12.10;52.50;;;-12.36;91.15;99696.31;5026230;28;130427;-76
2021/12/22 07:12:50;;;;;;;23.08;10.45;;;-12.00;52.60;;;-12.33;91.02;99693.38;5023515;28;129782;-76
2021/12/22 07:15:20;;;;;;;29.80;12.23;;;-12.00;52.30;;;-12.31;90.24;99701.06;5023532;28;119623;-76
2021/12/22 07:17:52;;;;;;;27.17;10.45;;;-12.00;51.50;;;-12.36;90.25;99698.94;5023797;28;119876;-76
2021/12/22 07:20:21;;;;;;;24.27;11.50;;;-12.00;50.10;;;-12.23;90.04;99693.28;5008034;28;129899;-76
2021/12/22 07:22:50;;;;;;;28.83;12.20;;;-11.90;50.60;;;-12.14;89.72;99691.47;5023219;28;129751;-77
2021/12/22 07:25:23;;;;;;;27.73;11.30;;;-11.90;49.90;;;-12.04;89.34;99699.19;5007183;28;120610;-76
2021/12/22 07:27:53;;;;;;;31.77;14.68;;;-11.90;49.30;;;-11.88;88.78;99701.00;5023058;28;121756;-76
2021/12/22 07:30:22;;;;;;;28.23;12.95;;;-11.90;49.20;;;-11.96;88.41;99707.09;5007905;28;129372;-76
2021/12/22 07:32:51;;;;;;;29.35;12.82;;;-11.80;47.90;;;-11.88;88.28;99708.88;5022934;28;129884;-76
2021/12/22 07:35:30;;;;;;;25.17;9.35;;;-11.80;47.70;;;-11.83;88.11;99709.19;4991772;28;118865;-76
2021/12/22 07:38:11;;;;;;;15.85;7.38;;;-11.70;47.00;;;-11.66;87.64;99710.84;5021835;28;119540;-76
2021/12/22 07:40:40;;;;;;;15.43;8.02;;;-11.60;47.30;;;-11.31;86.54;99714.16;5004854;28;130104;-76
2021/12/22 07:43:11;;;;;;;17.10;8.18;;;-11.50;45.70;;;-11.38;86.05;99713.16;5008311;28;129870;-76
2021/12/22 07:45:39;;;;;;;12.25;6.93;;;-11.50;44.80;;;-11.08;86.17;99709.06;5022947;28;119463;-78
2021/12/22 07:48:08;;;;;;;14.07;7.60;;;-11.30;46.00;;;-11.12;85.23;99702.50;5023155;28;119718;-76
2021/12/22 07:50:37;;;;;;;19.73;9.00;;;-11.30;40.20;;;-11.01;85.32;99703.97;5021227;28;130890;-76
2021/12/22 07:53:05;;;;;;;15.93;7.45;;;-11.20;42.70;;;-10.92;84.68;99708.22;5022656;28;129637;-77
2021/12/22 07:55:35;;;;;;;18.67;8.80;;;-11.10;38.40;;;-10.78;84.29;99704.09;5022845;28;119607;-76
2021/12/22 07:58:04;;;;;;;23.20;11.23;;;-11.00;39.60;;;-10.80;84.10;99705.22;5022807;28;119826;-76
2021/12/22 08:00:35;;;;;;;14.57;7.20;;;-11.00;39.50;;;-10.85;84.21;99703.13;5007399;28;129813;-76
2021/12/22 08:03:04;;;;;;;16.92;7.88;;;-10.80;35.50;;;-10.96;84.08;99708.72;5022531;28;129600;-77
2021/12/22 08:05:34;;;;;;;14.15;7.15;;;-11.00;35.10;;;-11.02;85.16;99724.09;5008079;28;118544;-76
2021/12/22 08:08:02;;;;;;;18.75;8.43;;;-11.10;36.80;;;-10.80;84.41;99718.34;5022680;28;119422;-76
2021/12/22 08:10:31;;;;;;;20.13;8.60;;;-11.00;38.40;;;-10.85;84.32;99714.41;5022045;28;130607;-76
2021/12/22 08:13:00;;;;;;;13.77;6.50;;;-11.00;38.50;;;-10.57;83.77;99721.88;5040995;27;129341;-76
2021/12/22 08:15:28;;;;;;;10.73;5.65;;;-10.90;38.80;;;-10.64;84.01;99720.09;5036939;27;121806;-77
2021/12/22 08:17:59;;;;;;;10.00;5.18;;;-10.80;38.30;;;-10.69;83.75;99712.72;5022677;28;122838;-76
2021/12/22 08:20:28;;;;;;;16.60;6.65;;;-10.90;36.90;;;-10.39;83.47;99718.22;5023145;27;129901;-76
2021/12/22 08:22:56;;;;;;;16.42;7.72;;;-10.70;38.20;;;-10.30;83.36;99722.41;5025222;28;130617;-76
2021/12/22 08:25:25;;;;;;;17.73;8.32;;;-10.50;37.50;;;-10.10;82.22;99727.25;5008251;28;119327;-76
2021/12/22 08:27:53;;;;;;;10.82;5.75;;;-10.50;35.50;;;-10.09;81.56;99728.91;5022606;28;119762;-75
2021/12/22 08:30:22;;;;;;;13.98;8.18;;;-10.40;32.50;;;-10.02;81.95;99730.69;5007802;28;129811;-75
2021/12/22 08:32:51;;;;;;;13.63;7.25;;;-10.40;34.80;;;-10.21;81.83;99715.34;5023031;28;130369;-76
2021/12/22 08:35:24;;;;;;;14.45;6.68;;;-10.50;31.10;;;-10.08;81.61;99726.13;4990824;28;119487;-76
2021/12/22 08:40:40;;;;;;;11.88;6.10;;;-10.40;31.20;;;-10.10;81.28;99728.06;5005779;28;129839;-76
2021/12/22 08:43:09;;;;;;;21.42;8.27;;;-10.40;31.90;;;-10.00;81.71;99728.69;5021635;28;129527;-75
2021/12/22 08:45:37;;;;;;;12.50;6.00;;;-10.40;31.30;;;-10.10;81.37;99717.56;5022336;28;119393;-76
2021/12/22 08:48:06;;;;;;;13.57;6.43;;;-10.20;30.30;;;-9.84;81.27;99733.03;5022053;28;119628;-76
2021/12/22 08:50:37;;;;;;;16.98;8.52;;;-10.30;32.00;;;-9.50;80.37;99734.47;5003940;28;130111;-76
2021/12/22 08:53:05;;;;;;;15.38;7.82;;;-10.30;35.40;;;-9.22;79.70;99729.47;5021641;28;129610;-76
2021/12/22 08:55:34;;;;;;;18.58;9.65;;;-10.00;37.40;;;-9.01;78.61;99737.69;5022516;28;119661;-76
2021/12/22 08:58:03;;;;;;;12.88;7.88;;;-10.00;35.40;;;-9.08;78.61;99727.88;5009020;28;118565;-76
2021/12/22 09:00:33;;;;;;;17.42;8.48;;;-9.80;31.70;;;-9.01;77.94;99730.59;5021610;28;129861;-76
2021/12/22 09:03:02;;;;;;;12.82;5.85;;;-10.00;31.60;;;-9.52;79.22;99720.69;5006425;28;128951;-76
2021/12/22 09:05:31;;;;;;;10.60;5.80;;;-10.20;31.30;;;-9.31;79.41;99732.34;5020718;28;122068;-75
2021/12/22 09:08:01;;;;;;;13.18;7.10;;;-10.00;32.90;;;-9.18;78.50;99732.56;5021663;28;121810;-76
2021/12/22 09:10:38;;;;;;;10.88;5.22;;;-10.00;29.70;;;-9.25;77.64;99736.91;5023581;28;130395;-76
2021/12/22 09:13:07;;;;;;;14.27;7.47;;;-10.10;29.30;;;-9.42;78.75;99731.75;5020604;28;129822;-76
2021/12/22 09:15:36;;;;;;;12.98;6.55;;;-10.10;31.50;;;-9.35;78.98;99728.44;5023747;28;118551;-76
2021/12/22 09:18:05;;;;;;;9.68;5.10;;;-10.00;31.50;;;-9.55;79.32;99731.56;5023842;28;118501;-76
2021/12/22 09:20:34;;;;;;;12.73;6.43;;;-10.20;31.40;;;-9.63;79.23;99728.94;5022963;28;129763;-76
2021/12/22 09:23:04;;;;;;;12.13;6.25;;;-10.20;31.70;;;-9.71;79.99;99729.00;5021653;28;130287;-76
2021/12/22 09:25:33;;;;;;;11.60;5.95;;;-10.20;33.50;;;-9.91;81.09;99732.06;5021804;28;119676;-76
2021/12/22 09:28:02;;;;;;;10.88;5.68;;;-10.30;35.10;;;-9.96;81.93;99729.16;5023463;28;118830;-76
2021/12/22 09:30:35;;;;;;;10.43;5.70;;;-10.30;35.80;;;-10.04;81.71;99731.81;5022738;27;129272;-76
2021/12/22 09:33:05;;;;;;;12.40;6.03;;;-10.20;31.80;;;-9.82;81.79;99732.84;5024580;28;130065;-76
2021/12/22 09:35:34;;;;;;;18.45;7.95;;;-10.20;34.40;;;-9.91;81.75;99736.50;5025281;28;119490;-76
2021/12/22 09:38:04;;;;;;;10.93;5.90;;;-10.20;32.40;;;-9.70;81.12;99733.28;5010440;28;118602;-76
2021/12/22 09:40:33;;;;;;;10.55;6.28;;;-10.20;31.70;;;-9.72;80.64;99737.88;5026661;28;129045;-75
2021/12/22 09:43:01;;;;;;;13.43;5.82;;;-10.10;30.10;;;-9.68;80.94;99736.56;5024356;28;129839;-75
2021/12/22 09:45:32;;;;;;;11.52;6.75;;;-9.80;31.10;;;-9.24;79.10;99731.47;5024878;28;119613;-76
2021/12/22 09:48:22;;;;;;;15.50;7.20;;;-9.70;28.30;;;-9.48;79.56;99732.47;5025243;28;119598;-75
2021/12/22 09:50:55;;;;;;;14.15;7.13;;;-9.90;27.60;;;-9.42;79.29;99731.75;5024475;28;130258;-76
2021/12/22 09:53:37;;;;;;;12.57;5.18;;;-9.80;28.70;;;-9.68;80.08;99726.03;5024588;28;129890;-76
2021/12/22 09:56:06;;;;;;;15.68;6.80;;;-9.90;27.70;;;-9.48;80.28;99721.94;5025312;28;122184;-76
2021/12/22 09:58:36;;;;;;;16.38;7.82;;;-9.90;28.30;;;-9.53;80.88;99719.03;5024878;28;121988;-76
2021/12/22 10:01:05;;;;;;;13.63;7.38;;;-9.90;29.60;;;-9.23;79.78;99721.75;5009353;28;129561;-76
2021/12/22 10:03:34;;;;;;;19.25;9.43;;;-9.90;31.40;;;-9.04;79.81;99725.72;5024158;28;129807;-75
2021/12/22 10:06:02;;;;;;;21.65;11.25;;;-9.70;29.40;;;-9.20;79.48;99724.03;5024415;28;119541;-75
2021/12/22 10:08:34;;;;;;;17.33;8.48;;;-9.70;30.70;;;-9.26;79.51;99727.38;5009716;28;119055;-75
2021/12/22 10:11:06;;;;;;;13.27;6.38;;;-9.60;29.70;;;-9.36;79.14;99729.41;5010965;28;129263;-75
2021/12/22 10:13:41;;;;;;;12.32;7.82;;;-9.70;26.60;;;-9.31;79.75;99737.63;5026378;28;130301;-76
2021/12/22 10:16:14;;;;;;;10.77;5.72;;;-9.60;29.00;;;-9.27;79.11;99726.56;5011478;28;118927;-76